createdAt,value
2022-10-19T00:01:21.492Z,102492.44
2022-10-19T00:03:53.361Z,102490.47
2022-10-19T00:06:25.874Z,102488.31
2022-10-19T00:08:54.879Z,102486.69
2022-10-19T00:11:23.936Z,102484.16
2022-10-19T00:13:52.256Z,102484.78
2022-10-19T00:16:21.716Z,102486.00
2022-10-19T00:18:51.333Z,102483.69
2022-10-19T00:21:21.273Z,102483.06
2022-10-19T00:23:50.761Z,102482.47
2022-10-19T00:26:19.059Z,102488.50
2022-10-19T00:28:47.301Z,102485.34
2022-10-19T00:31:18.426Z,102486.41
2022-10-19T00:33:48.078Z,102482.38
2022-10-19T00:36:20.798Z,102478.28
2022-10-19T00:38:49.379Z,102471.69
2022-10-19T00:41:19.260Z,102473.63
2022-10-19T00:44:00.069Z,102474.47
2022-10-19T00:46:31.245Z,102482.63
2022-10-19T00:49:04.889Z,102480.81
2022-10-19T00:51:40.510Z,102482.75
2022-10-19T00:54:09.881Z,102474.94
2022-10-19T00:56:41.862Z,102475.66
2022-10-19T00:59:11.966Z,102473.72
2022-10-19T01:01:40.149Z,102470.53
2022-10-19T01:04:08.380Z,102463.66
2022-10-19T01:06:38.359Z,102465.81
2022-10-19T01:09:07.163Z,102468.00
2022-10-19T01:11:47.777Z,102465.91
2022-10-19T01:14:35.691Z,102455.38
2022-10-19T01:17:14.049Z,102460.09
2022-10-19T01:20:32.259Z,102463.13
2022-10-19T01:23:46.661Z,102461.50
2022-10-19T01:26:38.392Z,102459.81
2022-10-19T01:29:17.578Z,102466.81
2022-10-19T01:31:53.517Z,102461.25
2022-10-19T01:34:30.382Z,102464.03
2022-10-19T01:37:03.897Z,102459.09
2022-10-19T01:39:47.678Z,102452.88
2022-10-19T01:42:27.469Z,102458.34
2022-10-19T01:45:03.170Z,102452.38
2022-10-19T01:47:40.022Z,102457.94
2022-10-19T01:50:16.674Z,102450.91
2022-10-19T01:52:45.585Z,102454.53
2022-10-19T01:55:17.566Z,102448.34
2022-10-19T01:57:50.621Z,102438.97
2022-10-19T02:00:20.445Z,102445.81
2022-10-19T02:02:54.517Z,102434.28
2022-10-19T02:05:28.807Z,102439.66
2022-10-19T02:08:02.099Z,102436.00
2022-10-19T02:10:34.900Z,102427.50
2022-10-19T02:13:03.968Z,102425.56
2022-10-19T02:15:36.784Z,102425.38
2022-10-19T02:18:07.228Z,102427.69
2022-10-19T02:20:37.716Z,102429.03
2022-10-19T02:23:07.568Z,102432.28
2022-10-19T02:25:36.365Z,102427.31
2022-10-19T02:28:05.970Z,102428.16
2022-10-19T02:30:34.397Z,102431.81
2022-10-19T02:33:02.653Z,102427.94
2022-10-19T02:35:32.246Z,102423.69
2022-10-19T02:38:03.356Z,102418.19
2022-10-19T02:40:37.390Z,102423.84
2022-10-19T02:43:11.417Z,102429.78
2022-10-19T02:45:45.912Z,102409.44
2022-10-19T02:48:21.025Z,102408.59
2022-10-19T02:50:52.054Z,102416.31
2022-10-19T02:53:20.419Z,102412.75
2022-10-19T02:55:50.312Z,102406.34
2022-10-19T02:58:18.483Z,102398.91
2022-10-19T03:00:46.713Z,102405.25
2022-10-19T03:03:14.964Z,102384.78
2022-10-19T03:05:43.133Z,102393.19
2022-10-19T03:08:12.623Z,102397.28
2022-10-19T03:10:40.776Z,102390.09
2022-10-19T03:13:08.981Z,102381.38
2022-10-19T03:15:37.134Z,102388.63
2022-10-19T03:18:05.446Z,102386.84
2022-10-19T03:20:33.627Z,102400.84
2022-10-19T03:23:01.770Z,102393.59
2022-10-19T03:25:31.400Z,102399.75
2022-10-19T03:27:59.715Z,102391.19
2022-10-19T03:30:28.170Z,102405.19
2022-10-19T03:32:56.331Z,102401.09
2022-10-19T03:35:24.498Z,102395.72
2022-10-19T03:37:52.650Z,102394.03
2022-10-19T03:40:20.820Z,102396.66
2022-10-19T03:42:50.315Z,102404.34
2022-10-19T03:45:18.501Z,102405.38
2022-10-19T03:47:51.388Z,102405.84
2022-10-19T03:50:21.201Z,102405.69
2022-10-19T03:52:49.840Z,102415.09
2022-10-19T03:55:18.915Z,102415.84
2022-10-19T03:57:47.072Z,102411.03
2022-10-19T04:00:17.336Z,102410.88
2022-10-19T04:02:45.511Z,102409.25
2022-10-19T04:05:13.747Z,102416.25
2022-10-19T04:07:41.942Z,102416.13
2022-10-19T04:10:10.687Z,102419.31
2022-10-19T04:12:38.861Z,102416.25
2022-10-19T04:15:08.183Z,102416.50
2022-10-19T04:17:37.761Z,102417.16
2022-10-19T04:20:07.430Z,102417.53
2022-10-19T04:22:35.602Z,102408.72
2022-10-19T04:25:03.768Z,102414.31
2022-10-19T04:27:32.302Z,102406.41
2022-10-19T04:30:00.656Z,102401.34
2022-10-19T04:32:28.811Z,102412.47
2022-10-19T04:34:58.327Z,102412.09
2022-10-19T04:37:26.575Z,102407.97
2022-10-19T04:39:54.729Z,102403.28
2022-10-19T04:42:22.895Z,102401.16
2022-10-19T04:44:51.066Z,102406.13
2022-10-19T04:47:19.335Z,102401.47
2022-10-19T04:49:47.511Z,102402.78
2022-10-19T04:52:17.063Z,102408.09
2022-10-19T04:54:45.211Z,102409.56
2022-10-19T04:57:13.499Z,102407.50
2022-10-19T04:59:41.637Z,102399.81
2022-10-19T05:02:09.825Z,102398.75
2022-10-19T05:04:39.826Z,102390.00
2022-10-19T05:07:11.142Z,102388.66
2022-10-19T05:09:40.686Z,102390.41
2022-10-19T05:12:08.906Z,102381.66
2022-10-19T05:14:39.122Z,102382.50
2022-10-19T05:17:10.295Z,102390.22
2022-10-19T05:19:38.483Z,102394.97
2022-10-19T05:22:06.670Z,102381.53
2022-10-19T05:24:34.831Z,102382.16
2022-10-19T05:27:04.406Z,102378.69
2022-10-19T05:29:33.862Z,102383.41
2022-10-19T05:32:02.063Z,102387.66
2022-10-19T05:34:30.240Z,102392.66
2022-10-19T05:36:58.569Z,102388.81
2022-10-19T05:39:27.988Z,102389.88
2022-10-19T05:41:56.172Z,102393.53
2022-10-19T05:44:25.824Z,102392.03
2022-10-19T05:46:54.042Z,102393.91
2022-10-19T05:49:23.753Z,102383.69
2022-10-19T05:51:51.966Z,102390.75
2022-10-19T05:54:23.749Z,102393.97
2022-10-19T05:56:54.613Z,102388.88
2022-10-19T05:59:25.117Z,102384.81
2022-10-19T06:01:53.399Z,102385.66
2022-10-19T06:04:21.575Z,102390.00
2022-10-19T06:06:49.827Z,102400.47
2022-10-19T06:09:18.051Z,102386.75
2022-10-19T06:11:46.558Z,102380.59
2022-10-19T06:14:17.243Z,102386.94
2022-10-19T06:16:46.913Z,102388.41
2022-10-19T06:19:15.121Z,102382.44
2022-10-19T06:21:46.015Z,102386.75
2022-10-19T06:24:14.361Z,102382.72
2022-10-19T06:26:42.682Z,102386.59
2022-10-19T06:29:11.412Z,102394.31
2022-10-19T06:31:39.597Z,102404.13
2022-10-19T06:34:09.181Z,102396.41
2022-10-19T06:36:37.472Z,102395.78
2022-10-19T06:39:05.911Z,102393.63
2022-10-19T06:41:34.341Z,102399.41
2022-10-19T06:44:02.550Z,102396.84
2022-10-19T06:46:32.271Z,102396.00
2022-10-19T06:49:03.023Z,102396.41
2022-10-19T06:51:34.135Z,102401.97
2022-10-19T06:54:02.809Z,102393.47
2022-10-19T06:56:31.313Z,102386.81
2022-10-19T06:59:00.053Z,102391.53
2022-10-19T07:01:28.438Z,102382.09
2022-10-19T07:03:56.699Z,102385.66
2022-10-19T07:06:27.426Z,102380.31
2022-10-19T07:08:56.942Z,102374.78
2022-10-19T07:11:25.234Z,102374.25
2022-10-19T07:13:54.364Z,102373.94
2022-10-19T07:16:23.313Z,102375.56
2022-10-19T07:18:53.584Z,102384.72
2022-10-19T07:21:24.010Z,102379.81
2022-10-19T07:23:52.646Z,102380.91
2022-10-19T07:26:26.661Z,102383.22
2022-10-19T07:28:57.383Z,102378.09
2022-10-19T07:31:26.932Z,102382.06
2022-10-19T07:33:56.429Z,102378.25
2022-10-19T07:36:25.643Z,102385.66
2022-10-19T07:38:53.999Z,102382.91
2022-10-19T07:41:26.063Z,102392.41
2022-10-19T07:43:55.248Z,102384.81
2022-10-19T07:46:27.259Z,102385.88
2022-10-19T07:48:55.849Z,102387.94
2022-10-19T07:51:24.459Z,102389.75
2022-10-19T07:53:53.031Z,102388.19
2022-10-19T07:56:25.638Z,102399.69
2022-10-19T07:58:56.445Z,102392.09
2022-10-19T08:01:27.554Z,102398.25
2022-10-19T08:04:43.177Z,102392.25
2022-10-19T08:06:45.809Z,102390.31
2022-10-19T08:09:33.485Z,102385.88
2022-10-19T08:12:03.742Z,102386.59
2022-10-19T08:14:32.187Z,102391.88
2022-10-19T08:17:00.920Z,102386.75
2022-10-19T08:19:29.143Z,102395.94
2022-10-19T08:21:57.364Z,102393.16
2022-10-19T08:24:25.512Z,102394.28
2022-10-19T08:26:53.697Z,102393.66
2022-10-19T08:29:25.516Z,102392.81
2022-10-19T08:31:56.013Z,102391.59
2022-10-19T08:34:24.296Z,102387.06
2022-10-19T08:36:52.554Z,102390.34
2022-10-19T08:39:20.758Z,102382.13
2022-10-19T08:42:02.250Z,102389.13
2022-10-19T08:44:50.947Z,102386.97
2022-10-19T08:47:34.219Z,102382.22
2022-10-19T08:50:04.004Z,102381.69
2022-10-19T08:52:35.836Z,102375.09
2022-10-19T08:55:15.069Z,102364.22
2022-10-19T08:57:56.678Z,102358.16
2022-10-19T09:00:36.668Z,102348.41
2022-10-19T09:03:20.029Z,102354.97
2022-10-19T09:06:06.130Z,102356.13
2022-10-19T09:08:39.210Z,102360.25
2022-10-19T09:11:10.858Z,102351.78
2022-10-19T09:14:00.587Z,102356.22
2022-10-19T09:16:34.843Z,102345.38
2022-10-19T09:19:04.110Z,102332.91
2022-10-19T09:21:47.479Z,102330.22
2022-10-19T09:24:29.711Z,102336.31
2022-10-19T09:27:00.489Z,102333.00
2022-10-19T09:29:37.273Z,102332.56
2022-10-19T09:32:12.874Z,102335.34
2022-10-19T09:34:45.499Z,102323.06
2022-10-19T09:37:21.090Z,102331.59
2022-10-19T09:39:55.617Z,102340.81
2022-10-19T09:42:29.116Z,102323.19
2022-10-19T09:45:00.111Z,102320.91
2022-10-19T09:47:35.804Z,102319.59
2022-10-19T09:50:15.461Z,102317.09
2022-10-19T09:52:45.279Z,102323.16
2022-10-19T09:55:29.413Z,102320.75
2022-10-19T09:58:06.541Z,102320.97
2022-10-19T10:00:42.257Z,102314.88
2022-10-19T10:03:26.047Z,102315.72
2022-10-19T10:05:56.917Z,102314.59
2022-10-19T10:08:30.754Z,102305.72
2022-10-19T10:11:08.134Z,102300.13
2022-10-19T10:13:42.754Z,102307.41
2022-10-19T10:16:16.176Z,102295.50
2022-10-19T10:18:56.556Z,102307.22
2022-10-19T10:21:27.441Z,102301.03
2022-10-19T10:24:06.505Z,102304.16
2022-10-19T10:26:41.746Z,102310.03
2022-10-19T10:29:24.728Z,102300.06
2022-10-19T10:31:56.819Z,102311.81
2022-10-19T10:34:46.083Z,102316.75
2022-10-19T10:37:23.165Z,102303.09
2022-10-19T10:39:55.769Z,102301.50
2022-10-19T10:42:35.059Z,102299.84
2022-10-19T10:45:03.880Z,102285.38
2022-10-19T10:47:32.942Z,102298.56
2022-10-19T10:50:07.732Z,102298.38
2022-10-19T10:52:37.152Z,102285.94
2022-10-19T10:55:18.943Z,102275.50
2022-10-19T10:57:51.483Z,102283.66
2022-10-19T11:00:24.028Z,102269.84
2022-10-19T11:03:01.234Z,102281.56
2022-10-19T11:05:35.485Z,102275.47
2022-10-19T11:08:12.687Z,102272.56
2022-10-19T11:10:47.668Z,102273.59
2022-10-19T11:13:22.551Z,102258.03
2022-10-19T11:15:55.941Z,102254.31
2022-10-19T11:18:30.473Z,102238.25
2022-10-19T11:21:08.164Z,102242.28
2022-10-19T11:23:57.299Z,102227.91
2022-10-19T11:26:44.781Z,102227.31
2022-10-19T11:29:39.183Z,102234.69
2022-10-19T11:32:17.458Z,102216.34
2022-10-19T11:35:01.965Z,102207.63
2022-10-19T11:37:49.600Z,102204.00
2022-10-19T11:40:28.286Z,102202.13
2022-10-19T11:43:04.932Z,102196.25
2022-10-19T11:45:48.465Z,102191.47
2022-10-19T11:48:35.417Z,102192.63
2022-10-19T11:51:21.050Z,102191.47
2022-10-19T11:54:04.545Z,102197.19
2022-10-19T11:57:01.582Z,102188.69
2022-10-19T11:59:46.054Z,102183.03
2022-10-19T12:02:43.065Z,102186.91
2022-10-19T12:05:14.802Z,102180.16
2022-10-19T12:07:57.885Z,102175.16
2022-10-19T12:10:35.317Z,102173.38
2022-10-19T12:13:06.565Z,102158.16
2022-10-19T12:15:40.975Z,102150.50
2022-10-19T12:18:19.906Z,102142.78
2022-10-19T12:20:51.966Z,102147.03
2022-10-19T12:23:28.886Z,102134.09
2022-10-19T12:26:01.487Z,102130.28
2022-10-19T12:28:32.797Z,102129.38
2022-10-19T12:31:03.045Z,102130.75
2022-10-19T12:33:45.449Z,102133.59
2022-10-19T12:36:26.281Z,102122.97
2022-10-19T12:39:03.518Z,102127.44
2022-10-19T12:41:45.351Z,102118.28
2022-10-19T12:44:38.083Z,102115.84
2022-10-19T12:47:12.506Z,102101.44
2022-10-19T12:49:49.927Z,102094.81
2022-10-19T12:52:41.530Z,102092.72
2022-10-19T12:55:34.710Z,102090.09
2022-10-19T12:58:17.478Z,102088.88
2022-10-19T13:01:00.642Z,102078.06
2022-10-19T13:03:32.864Z,102069.63
2022-10-19T13:06:08.563Z,102073.63
2022-10-19T13:08:44.539Z,102072.94
2022-10-19T13:11:15.625Z,102061.50
2022-10-19T13:14:06.076Z,102055.53
2022-10-19T13:16:59.424Z,102058.97
2022-10-19T13:19:27.958Z,102052.47
2022-10-19T13:22:27.616Z,102048.91
2022-10-19T13:25:26.821Z,102040.44
2022-10-19T13:27:57.472Z,102037.06
2022-10-19T13:31:08.137Z,102026.41
2022-10-19T13:34:01.463Z,102021.22
2022-10-19T13:36:29.842Z,102020.63
2022-10-19T13:39:13.067Z,102017.84
2022-10-19T13:41:56.294Z,102021.34
2022-10-19T13:44:35.500Z,102014.38
2022-10-19T13:50:35.489Z,102006.66
2022-10-19T13:53:30.238Z,102005.38
2022-10-19T13:56:28.992Z,102004.31
2022-10-19T13:59:54.842Z,102008.25
2022-10-19T14:03:01.730Z,101992.91
2022-10-19T14:06:08.807Z,102004.53
2022-10-19T14:09:22.521Z,102001.91
2022-10-19T14:11:54.914Z,101999.88
2022-10-19T14:14:24.985Z,101999.38
2022-10-19T14:16:59.760Z,102002.38
2022-10-19T14:19:41.947Z,101999.38
2022-10-19T14:22:27.191Z,102000.22
2022-10-19T14:25:03.288Z,101995.59
2022-10-19T14:27:32.687Z,101985.38
2022-10-19T14:30:01.298Z,101982.78
2022-10-19T14:32:30.999Z,101984.38
2022-10-19T14:35:06.427Z,101982.00
2022-10-19T14:37:34.945Z,101981.78
2022-10-19T14:40:09.161Z,101980.13
2022-10-19T14:42:43.465Z,101965.25
2022-10-19T14:45:16.661Z,101960.56
2022-10-19T14:47:58.009Z,101959.06
2022-10-19T14:50:39.569Z,101947.94
2022-10-19T14:53:34.227Z,101943.63
2022-10-19T14:56:07.170Z,101948.28
2022-10-19T14:58:41.662Z,101939.44
2022-10-19T15:01:12.503Z,101953.06
2022-10-19T15:03:44.213Z,101943.00
2022-10-19T15:06:22.827Z,101946.38
2022-10-19T15:11:31.442Z,101939.72
2022-10-19T15:14:04.863Z,101933.75
2022-10-19T15:16:43.860Z,101940.31
2022-10-19T15:19:25.919Z,101933.22
2022-10-19T15:22:16.460Z,101936.84
2022-10-19T15:25:01.799Z,101925.81
2022-10-19T15:27:36.086Z,101922.16
2022-10-19T15:30:23.644Z,101914.84
2022-10-19T15:32:57.456Z,101910.16
2022-10-19T15:35:31.337Z,101909.31
2022-10-19T15:38:09.910Z,101901.81
2022-10-19T15:40:41.629Z,101903.25
2022-10-19T15:43:37.700Z,101898.66
2022-10-19T15:46:08.258Z,101897.38
2022-10-19T15:48:51.141Z,101898.81
2022-10-19T15:51:47.605Z,101904.16
2022-10-19T15:54:19.560Z,101889.38
2022-10-19T15:56:52.577Z,101891.53
2022-10-19T15:59:23.811Z,101888.09
2022-10-19T16:01:53.781Z,101883.44
2022-10-19T16:04:24.113Z,101879.44
2022-10-19T16:06:52.402Z,101880.16
2022-10-19T16:09:24.502Z,101878.88
2022-10-19T16:11:56.910Z,101877.84
2022-10-19T16:14:26.446Z,101875.75
2022-10-19T16:16:55.760Z,101878.69
2022-10-19T16:19:24.070Z,101875.31
2022-10-19T16:21:52.290Z,101884.38
2022-10-19T16:24:22.005Z,101870.66
2022-10-19T16:26:50.345Z,101864.47
2022-10-19T16:29:18.543Z,101858.47
2022-10-19T16:31:46.709Z,101857.88
2022-10-19T16:34:14.904Z,101870.59
2022-10-19T16:36:43.149Z,101852.13
2022-10-19T16:39:11.370Z,101845.69
2022-10-19T16:41:40.922Z,101851.94
2022-10-19T16:44:12.072Z,101847.47
2022-10-19T16:46:40.426Z,101848.13
2022-10-19T16:49:08.627Z,101838.47
2022-10-19T16:51:38.301Z,101834.22
2022-10-19T16:54:09.591Z,101834.50
2022-10-19T16:56:44.573Z,101838.34
2022-10-19T16:59:15.083Z,101833.69
2022-10-19T17:01:45.425Z,101834.63
2022-10-19T17:04:14.314Z,101842.94
2022-10-19T17:06:43.052Z,101838.28
2022-10-19T17:12:00.914Z,101851.94
2022-10-19T17:14:29.172Z,101843.59
2022-10-19T17:16:57.375Z,101843.50
2022-10-19T17:19:25.649Z,101838.56
2022-10-19T17:21:56.533Z,101831.19
2022-10-19T17:24:25.016Z,101833.53
2022-10-19T17:26:54.351Z,101838.75
2022-10-19T17:29:24.523Z,101832.94
2022-10-19T17:31:52.764Z,101832.69
2022-10-19T17:34:20.949Z,101834.47
2022-10-19T17:36:49.267Z,101832.50
2022-10-19T17:39:22.142Z,101825.50
2022-10-19T17:41:53.226Z,101830.34
2022-10-19T17:44:24.053Z,101831.59
2022-10-19T17:46:52.208Z,101822.44
2022-10-19T17:49:20.363Z,101822.78
2022-10-19T17:51:48.541Z,101830.53
2022-10-19T17:54:16.826Z,101835.38
2022-10-19T17:56:45.996Z,101831.47
2022-10-19T17:59:14.646Z,101827.28
2022-10-19T18:01:44.262Z,101822.56
2022-10-19T18:04:12.523Z,101811.84
2022-10-19T18:06:40.854Z,101808.00
2022-10-19T18:09:10.659Z,101801.97
2022-10-19T18:11:42.943Z,101814.69
2022-10-19T18:14:13.428Z,101817.56
2022-10-19T18:16:46.341Z,101819.66
2022-10-19T18:19:16.205Z,101821.53
2022-10-19T18:21:46.366Z,101830.84
2022-10-19T18:24:19.400Z,101829.56
2022-10-19T18:26:48.937Z,101828.56
2022-10-19T18:29:20.415Z,101828.56
2022-10-19T18:31:52.659Z,101823.13
2022-10-19T18:34:23.092Z,101819.50
2022-10-19T18:36:52.125Z,101813.28
2022-10-19T18:39:20.988Z,101818.66
2022-10-19T18:41:54.465Z,101806.22
2022-10-19T18:44:26.548Z,101807.03
2022-10-19T18:46:57.607Z,101807.34
2022-10-19T18:49:26.148Z,101808.31
2022-10-19T18:51:55.882Z,101796.81
2022-10-19T18:54:26.233Z,101809.84
2022-10-19T18:56:55.095Z,101805.31
2022-10-19T18:59:23.746Z,101804.91
2022-10-19T19:01:52.462Z,101787.50
2022-10-19T19:04:22.351Z,101805.34
2022-10-19T19:06:50.865Z,101785.03
2022-10-19T19:09:19.386Z,101783.56
2022-10-19T19:11:47.947Z,101781.25
2022-10-19T19:14:18.323Z,101786.09
2022-10-19T19:16:47.343Z,101782.78
2022-10-19T19:19:18.116Z,101769.16
2022-10-19T19:21:48.989Z,101767.03
2022-10-19T19:24:19.348Z,101760.31
2022-10-19T19:26:50.289Z,101758.31
2022-10-19T19:29:19.696Z,101756.13
2022-10-19T19:31:48.766Z,101762.75
2022-10-19T19:34:17.830Z,101757.72
2022-10-19T19:36:48.738Z,101759.16
2022-10-19T19:39:19.931Z,101748.38
2022-10-19T19:41:48.726Z,101747.16
2022-10-19T19:44:17.726Z,101738.72
2022-10-19T19:46:46.399Z,101735.41
2022-10-19T19:49:15.553Z,101733.78
2022-10-19T19:51:44.189Z,101735.00
2022-10-19T19:54:14.208Z,101746.66
2022-10-19T19:56:43.433Z,101753.22
2022-10-19T19:59:13.702Z,101760.66
2022-10-19T20:01:42.594Z,101746.06
2022-10-19T20:04:11.714Z,101742.75
2022-10-19T20:06:41.351Z,101746.53
2022-10-19T20:09:10.797Z,101744.88
2022-10-19T20:11:42.646Z,101742.63
2022-10-19T20:14:11.813Z,101735.44
2022-10-19T20:16:40.304Z,101732.22
2022-10-19T20:19:11.176Z,101730.34
2022-10-19T20:21:40.471Z,101730.06
2022-10-19T20:24:09.607Z,101730.94
2022-10-19T20:26:38.372Z,101716.94
2022-10-19T20:29:08.185Z,101714.25
2022-10-19T20:31:39.823Z,101707.75
2022-10-19T20:34:10.796Z,101711.97
2022-10-19T20:36:39.807Z,101707.22
2022-10-19T20:39:08.609Z,101706.03
2022-10-19T20:41:37.163Z,101708.50
2022-10-19T20:44:07.115Z,101722.38
2022-10-19T20:46:36.999Z,101712.56
2022-10-19T20:49:07.309Z,101709.66
2022-10-19T20:51:37.978Z,101700.41
2022-10-19T20:54:08.626Z,101694.34
2022-10-19T20:56:38.835Z,101704.75
2022-10-19T20:59:11.692Z,101699.09
2022-10-19T21:01:41.814Z,101685.22
2022-10-19T21:04:12.399Z,101685.38
2022-10-19T21:06:43.569Z,101681.63
2022-10-19T21:09:13.158Z,101676.09
2022-10-19T21:11:43.869Z,101677.56
2022-10-19T21:14:15.687Z,101675.38
2022-10-19T21:16:44.398Z,101677.75
2022-10-19T21:19:15.853Z,101671.06
2022-10-19T21:21:46.341Z,101670.69
2022-10-19T21:24:16.534Z,101661.72
2022-10-19T21:26:45.645Z,101659.34
2022-10-19T21:29:17.080Z,101647.44
2022-10-19T21:31:48.882Z,101645.22
2022-10-19T21:34:19.455Z,101641.50
2022-10-19T21:36:48.398Z,101636.34
2022-10-19T21:39:17.187Z,101631.81
2022-10-19T21:41:45.804Z,101637.19
2022-10-19T21:44:16.509Z,101629.94
2022-10-19T21:46:45.357Z,101639.06
2022-10-19T21:49:14.106Z,101639.00
2022-10-19T21:51:45.837Z,101641.03
2022-10-19T21:54:16.815Z,101630.97
2022-10-19T21:56:45.970Z,101614.63
2022-10-19T21:59:16.713Z,101616.31
2022-10-19T22:01:45.447Z,101619.06
2022-10-19T22:04:15.728Z,101630.22
2022-10-19T22:06:45.081Z,101616.81
2022-10-19T22:09:16.176Z,101617.72
2022-10-19T22:11:45.475Z,101617.03
2022-10-19T22:14:16.984Z,101615.47
2022-10-19T22:16:45.768Z,101622.16
2022-10-19T22:19:14.402Z,101620.28
2022-10-19T22:21:43.214Z,101619.66
2022-10-19T22:24:14.489Z,101605.25
2022-10-19T22:26:45.009Z,101609.16
2022-10-19T22:29:13.513Z,101606.59
2022-10-19T22:31:43.977Z,101599.81
2022-10-19T22:34:15.002Z,101591.56
2022-10-19T22:36:43.961Z,101593.75
2022-10-19T22:39:12.845Z,101586.25
2022-10-19T22:41:41.351Z,101577.41
2022-10-19T22:44:09.788Z,101578.44
2022-10-19T22:46:38.228Z,101578.34
2022-10-19T22:51:42.395Z,101571.22
2022-10-19T22:54:10.836Z,101559.28
2022-10-19T22:56:39.441Z,101559.53
2022-10-19T22:59:09.539Z,101554.72
2022-10-19T23:01:38.161Z,101547.22
2022-10-19T23:04:08.052Z,101543.63
2022-10-19T23:06:36.490Z,101539.25
2022-10-19T23:09:05.534Z,101528.13
2022-10-19T23:11:34.204Z,101529.91
2022-10-19T23:14:02.687Z,101524.97
2022-10-19T23:16:31.155Z,101520.97
2022-10-19T23:18:59.591Z,101521.25
2022-10-19T23:21:29.533Z,101516.88
2022-10-19T23:23:57.977Z,101510.59
2022-10-19T23:26:26.661Z,101502.53
2022-10-19T23:28:55.187Z,101494.59
2022-10-19T23:31:30.216Z,101494.28
2022-10-19T23:33:58.639Z,101492.72
2022-10-19T23:36:30.340Z,101489.03
2022-10-19T23:38:59.399Z,101488.75
2022-10-19T23:41:28.066Z,101481.94
2022-10-19T23:43:56.492Z,101489.50
2022-10-19T23:46:25.017Z,101482.88
2022-10-19T23:48:53.452Z,101479.63
2022-10-19T23:51:23.485Z,101474.91
2022-10-19T23:53:54.048Z,101469.47
2022-10-19T23:56:24.526Z,101475.31
2022-10-19T23:58:53.552Z,101465.28
